Time;durP1;ratioP1;P1;durP2;ratioP2;P2;SDS_P1;SDS_P2;PMS_P1;PMS_P2;Temp;Humidity;BMP_temperature;BMP_pressure;BME280_temperature;BME280_humidity;BME280_pressure;Samples;Min_cycle;Max_cycle;Signal;HPM_P1;HPM_P2
2021/07/19 00:01:08;;;;;;;8.13;7.32;;;;;;;20.16;78.40;93910.53;2964617;40;20134;-68
2021/07/19 00:03:10;;;;;;;12.43;7.75;;;;;;;20.10;78.71;93906.97;2957583;40;20048;-68
2021/07/19 00:05:14;;;;;;;8.93;7.45;;;;;;;20.09;78.61;93909.84;2967522;40;20390;-82
2021/07/19 00:07:16;;;;;;;11.63;6.95;;;;;;;20.10;78.58;93919.47;2970290;40;20121;-81
2021/07/19 00:09:18;;;;;;;12.02;8.15;;;;;;;20.14;78.25;93924.06;2964485;40;20061;-82
2021/07/19 00:11:20;;;;;;;11.27;7.20;;;;;;;20.45;77.57;93906.00;2968347;40;20068;-81
2021/07/19 00:13:24;;;;;;;10.10;7.38;;;;;;;20.70;75.97;93905.66;2969096;40;20064;-82
2021/07/19 00:15:27;;;;;;;10.57;7.22;;;;;;;20.95;75.20;93909.78;2965769;40;20048;-80
2021/07/19 00:17:29;;;;;;;10.70;7.28;;;;;;;21.19;74.24;93899.78;2959460;40;20137;-81
2021/07/19 00:19:30;;;;;;;10.23;6.70;;;;;;;21.39;73.05;93899.25;2960330;40;20053;-80
2021/07/19 00:21:32;;;;;;;8.77;7.88;;;;;;;21.53;72.49;93905.88;2966808;40;20057;-81
2021/07/19 00:23:34;;;;;;;11.73;9.05;;;;;;;21.55;72.18;93910.94;2971731;40;20391;-82
2021/07/19 00:25:35;;;;;;;10.27;8.65;;;;;;;21.59;72.16;93904.06;2969084;40;20064;-80
2021/07/19 00:27:39;;;;;;;15.98;8.25;;;;;;;21.58;72.33;93905.13;2972139;40;20301;-81
2021/07/19 00:29:41;;;;;;;12.00;9.02;;;;;;;21.59;72.39;93907.53;2971399;40;20060;-82
2021/07/19 00:31:43;;;;;;;13.27;8.60;;;;;;;21.66;72.05;93912.69;2968314;40;20117;-81
2021/07/19 00:33:44;;;;;;;10.00;8.13;;;;;;;21.79;71.73;93911.50;2955337;40;20056;-82
2021/07/19 00:35:46;;;;;;;9.45;8.38;;;;;;;21.93;71.17;93911.97;2968901;40;20052;-80
2021/07/19 00:37:48;;;;;;;9.27;8.27;;;;;;;21.97;70.89;93916.53;2964604;40;20060;-82
2021/07/19 00:39:50;;;;;;;9.40;6.85;;;;;;;21.93;70.42;93915.41;2968106;40;20068;-82
2021/07/19 00:41:52;;;;;;;9.63;7.18;;;;;;;21.71;71.08;93920.75;2968659;40;20119;-81
2021/07/19 00:43:53;;;;;;;7.80;7.00;;;;;;;21.38;71.64;93921.59;2964701;40;20141;-82
2021/07/19 00:45:55;;;;;;;9.48;6.28;;;;;;;21.16;72.35;93916.22;2955322;40;20057;-79
2021/07/19 00:47:59;;;;;;;11.10;6.57;;;;;;;21.00;73.02;93915.19;2958969;40;20096;-81
2021/07/19 00:50:01;;;;;;;;;;;;;;;20.92;73.41;93912.94;2956054;40;20072;-80
2021/07/19 00:52:03;;;;;;;9.55;6.32;;;;;;;21.11;72.92;93911.63;2960773;40;20407;-80
2021/07/19 00:54:05;;;;;;;10.45;6.38;;;;;;;21.35;72.11;93906.13;2961122;40;20052;-79
2021/07/19 00:56:07;;;;;;;8.82;6.40;;;;;;;21.57;71.16;93901.63;2962913;40;20059;-81
2021/07/19 00:58:10;;;;;;;9.70;6.18;;;;;;;21.71;70.73;93894.09;2967885;40;20133;-80
2021/07/19 01:00:12;;;;;;;9.93;6.65;;;;;;;21.84;70.48;93900.91;2968463;40;20136;-81
2021/07/19 01:02:15;;;;;;;11.43;6.75;;;;;;;21.97;69.86;93897.88;2957826;40;20551;-80
2021/07/19 01:04:18;;;;;;;9.80;7.30;;;;;;;22.08;69.50;93902.25;2970522;39;20057;-80
2021/07/19 01:06:21;;;;;;;7.80;5.93;;;;;;;22.17;69.01;93905.28;2968524;40;20152;-81
2021/07/19 01:08:23;;;;;;;10.33;7.37;;;;;;;22.17;69.32;93902.63;2968383;40;20110;-80
2021/07/19 01:10:25;;;;;;;14.05;10.50;;;;;;;21.95;70.24;93909.84;2952338;40;20304;-79
2021/07/19 01:12:27;;;;;;;15.15;8.95;;;;;;;21.75;71.13;93915.75;2949713;40;20065;-82
2021/07/19 01:14:29;;;;;;;11.48;9.05;;;;;;;21.55;72.48;93908.28;2960681;40;20125;-81
2021/07/19 01:16:30;;;;;;;13.07;9.10;;;;;;;21.23;73.63;93914.19;2957810;40;20131;-80
2021/07/19 01:18:32;;;;;;;10.77;9.52;;;;;;;21.21;73.98;93911.78;2968255;40;20056;-81
2021/07/19 01:21:02;;;;;;;13.07;9.35;;;;;;;21.18;74.04;93919.44;2962183;40;20134;-80
2021/07/19 01:23:38;;;;;;;11.65;9.85;;;;;;;21.15;74.10;93917.28;2971262;40;20067;-81
2021/07/19 01:25:45;;;;;;;11.55;10.32;;;;;;;21.24;73.79;93913.94;2971600;40;20409;-80
2021/07/19 01:27:53;;;;;;;10.38;9.18;;;;;;;21.37;73.26;93920.78;2965962;40;20076;-80
2021/07/19 01:29:56;;;;;;;14.50;8.73;;;;;;;21.55;72.50;93924.25;2968508;40;20052;-81
2021/07/19 01:31:58;;;;;;;13.30;10.13;;;;;;;21.66;71.89;93920.66;2966163;40;20063;-84
2021/07/19 01:34:04;;;;;;;9.68;8.57;;;;;;;21.65;71.48;93919.06;2965366;40;20084;-80
2021/07/19 01:36:06;;;;;;;11.38;9.70;;;;;;;21.60;72.09;93924.34;2963475;40;20084;-79
2021/07/19 01:38:09;;;;;;;15.88;8.10;;;;;;;21.59;72.01;93923.50;2959947;40;20126;-82
2021/07/19 01:40:11;;;;;;;10.52;7.88;;;;;;;21.52;72.17;93927.44;2967507;40;20270;-83
2021/07/19 01:42:13;;;;;;;10.23;7.80;;;;;;;20.74;75.39;93932.63;2958123;40;20404;-80
2021/07/19 01:44:15;;;;;;;10.73;7.93;;;;;;;20.83;75.19;93929.28;2968725;40;20083;-81
2021/07/19 01:46:17;;;;;;;11.27;7.70;;;;;;;20.68;76.07;93930.91;2963556;40;20047;-82
2021/07/19 01:48:19;;;;;;;12.63;8.73;;;;;;;20.53;76.83;93934.06;2953652;40;20167;-82
2021/07/19 01:50:21;;;;;;;9.10;8.18;;;;;;;20.43;77.37;93932.03;2956867;40;20527;-80
2021/07/19 01:52:23;;;;;;;12.07;8.93;;;;;;;20.53;76.84;93921.56;2968682;40;20417;-82
2021/07/19 01:54:25;;;;;;;9.43;7.57;;;;;;;20.75;76.14;93926.22;2963734;40;20065;-80
2021/07/19 01:56:27;;;;;;;8.80;7.57;;;;;;;20.98;75.28;93925.28;2961963;40;20060;-80
2021/07/19 01:58:30;;;;;;;9.13;7.82;;;;;;;21.15;74.28;93923.41;2963180;40;20091;-80
2021/07/19 02:00:31;;;;;;;9.73;7.82;;;;;;;21.32;73.60;93922.59;2967818;40;20055;-81
2021/07/19 02:02:37;;;;;;;9.93;7.97;;;;;;;21.45;73.16;93919.63;2966920;40;20052;-81
2021/07/19 02:04:39;;;;;;;11.52;7.18;;;;;;;21.58;72.54;93919.25;2962643;40;20060;-80
2021/07/19 02:06:42;;;;;;;12.15;7.70;;;;;;;21.75;72.10;93926.41;2962362;40;20091;-81
2021/07/19 02:08:46;;;;;;;10.55;6.95;;;;;;;21.88;71.16;93928.69;2959672;40;20142;-84
2021/07/19 02:10:49;;;;;;;8.02;6.90;;;;;;;22.00;70.69;93932.03;2961261;40;20106;-79
2021/07/19 02:12:53;;;;;;;10.52;8.02;;;;;;;22.02;70.69;93921.91;2968678;40;20061;-80
2021/07/19 02:14:55;;;;;;;13.55;8.30;;;;;;;22.00;70.40;93918.69;2967519;40;20368;-79
2021/07/19 02:16:57;;;;;;;9.15;7.28;;;;;;;21.97;70.77;93929.88;2968477;40;20045;-83
2021/07/19 02:19:00;;;;;;;13.23;7.97;;;;;;;22.04;70.53;93930.47;2959154;40;20069;-80
2021/07/19 02:21:06;;;;;;;10.90;8.05;;;;;;;21.98;70.04;93923.47;2968583;40;20055;-81
2021/07/19 02:23:08;;;;;;;8.48;7.05;;;;;;;22.06;69.95;93928.38;2960668;40;20103;-81
2021/07/19 02:25:12;;;;;;;10.20;8.55;;;;;;;22.09;69.76;93930.56;2950934;40;20150;-81
2021/07/19 02:27:15;;;;;;;10.82;7.63;;;;;;;22.12;69.09;93917.78;2970760;40;20056;-80
2021/07/19 02:29:18;;;;;;;12.10;7.85;;;;;;;22.07;69.34;93929.19;2969546;40;20084;-82
2021/07/19 02:31:21;;;;;;;10.33;7.33;;;;;;;22.11;69.39;93932.16;2968144;40;20071;-80
2021/07/19 02:33:24;;;;;;;11.60;10.20;;;;;;;22.13;68.73;93930.03;2967292;40;20470;-82
2021/07/19 02:35:27;;;;;;;13.18;11.07;;;;;;;22.06;68.94;93928.38;2966027;40;20053;-80
2021/07/19 02:37:28;;;;;;;15.02;11.07;;;;;;;22.10;68.87;93926.03;2956081;40;20064;-81
2021/07/19 02:39:31;;;;;;;14.40;11.23;;;;;;;22.12;68.67;93931.91;2963858;40;20143;-80
2021/07/19 02:41:33;;;;;;;12.95;11.65;;;;;;;21.85;69.22;93935.34;2961943;40;20072;-82
2021/07/19 02:43:35;;;;;;;11.13;9.20;;;;;;;21.70;70.26;93927.13;2959924;40;20523;-80
2021/07/19 02:45:39;;;;;;;10.98;7.82;;;;;;;21.26;72.14;93932.38;2959883;40;20073;-80
2021/07/19 02:47:43;;;;;;;9.27;8.13;;;;;;;20.95;73.33;93939.88;2960790;40;20073;-80
2021/07/19 02:49:45;;;;;;;10.25;8.13;;;;;;;20.83;74.09;93944.47;2952613;40;20057;-81
2021/07/19 02:51:49;;;;;;;17.73;9.43;;;;;;;20.61;75.17;93944.38;2961547;40;20060;-78
2021/07/19 02:53:52;;;;;;;13.30;9.20;;;;;;;20.73;74.92;93950.41;2963200;40;20088;-81
2021/07/19 02:55:55;;;;;;;12.70;8.20;;;;;;;20.83;74.47;93952.47;2959864;40;20427;-81
2021/07/19 02:58:01;;;;;;;11.32;8.95;;;;;;;20.99;73.47;93946.34;2971009;40;20133;-82
2021/07/19 03:00:11;;;;;;;14.40;8.35;;;;;;;20.97;73.59;93950.28;2966534;40;20413;-80
2021/07/19 03:02:18;;;;;;;14.50;8.90;;;;;;;21.05;73.03;93952.53;2952463;40;20049;-81
2021/07/19 03:04:24;;;;;;;12.82;9.13;;;;;;;21.14;72.42;93952.94;2969887;40;20052;-81
2021/07/19 03:06:31;;;;;;;11.13;8.57;;;;;;;21.23;72.32;93949.63;2958546;40;20200;-69
2021/07/19 03:08:37;;;;;;;13.80;8.23;;;;;;;21.32;71.50;93957.22;2954525;40;20204;-69
2021/07/19 03:10:40;;;;;;;11.45;8.40;;;;;;;21.33;71.52;93956.16;2953059;40;20056;-69
2021/07/19 03:12:42;;;;;;;12.95;9.30;;;;;;;20.91;73.40;93959.22;2966191;40;20054;-70
2021/07/19 03:14:44;;;;;;;10.70;8.30;;;;;;;20.98;73.17;93966.00;2964285;40;20407;-68
2021/07/19 03:16:47;;;;;;;13.30;10.00;;;;;;;20.81;73.55;93966.00;2965130;40;20141;-68
2021/07/19 03:18:49;;;;;;;17.17;11.85;;;;;;;20.51;74.71;93971.56;2967467;40;20110;-68
2021/07/19 03:20:51;;;;;;;22.77;15.23;;;;;;;20.00;76.39;93975.88;2968097;40;20220;-69
2021/07/19 03:22:53;;;;;;;23.55;16.30;;;;;;;19.73;77.85;93979.06;2966945;40;20060;-68
2021/07/19 03:24:58;;;;;;;26.48;16.58;;;;;;;19.47;79.05;93971.53;2954497;40;20044;-79
2021/07/19 03:27:00;;;;;;;21.98;16.90;;;;;;;19.35;79.50;93974.19;2971932;40;20088;-80
2021/07/19 03:29:03;;;;;;;20.40;16.35;;;;;;;19.34;79.54;93977.91;2975278;40;20064;-83
2021/07/19 03:31:05;;;;;;;18.90;16.20;;;;;;;19.70;78.70;93976.06;2976593;40;20048;-81
2021/07/19 03:33:07;;;;;;;20.42;15.10;;;;;;;20.05;76.72;93973.34;2967058;40;20072;-81
2021/07/19 03:35:09;;;;;;;16.98;13.77;;;;;;;20.33;75.62;93975.22;2974190;40;20073;-82
2021/07/19 03:37:12;;;;;;;17.02;13.05;;;;;;;20.55;74.25;93977.22;2973068;40;20471;-80
2021/07/19 03:39:13;;;;;;;14.93;11.60;;;;;;;20.79;73.09;93985.94;2967357;40;20053;-82
2021/07/19 03:41:16;;;;;;;12.15;10.85;;;;;;;21.00;72.14;93984.41;2971704;40;20122;-81
2021/07/19 03:43:18;;;;;;;15.68;10.88;;;;;;;21.19;71.53;93985.00;2976366;40;20056;-80
2021/07/19 03:45:20;;;;;;;11.98;9.93;;;;;;;21.33;70.73;93988.13;2960102;40;20124;-81
2021/07/19 03:47:22;;;;;;;14.23;8.30;;;;;;;21.41;70.16;93985.91;2974347;40;20052;-81
2021/07/19 03:49:24;;;;;;;24.83;8.65;;;;;;;21.50;69.87;93993.47;2964279;40;20053;-81
2021/07/19 03:51:29;;;;;;;10.73;8.68;;;;;;;21.55;69.53;93991.69;2971382;40;20484;-81
2021/07/19 03:53:31;;;;;;;14.48;8.57;;;;;;;21.63;69.34;93993.94;2970388;40;20056;-82
2021/07/19 03:55:33;;;;;;;10.15;8.27;;;;;;;21.70;69.03;93992.97;2959305;40;20056;-80
2021/07/19 03:57:36;;;;;;;14.27;8.85;;;;;;;21.38;70.19;93988.19;2958789;40;20134;-82
2021/07/19 03:59:38;;;;;;;14.25;9.10;;;;;;;21.07;71.46;93996.50;2954125;40;20049;-81
2021/07/19 04:01:41;;;;;;;16.00;9.77;;;;;;;21.07;71.94;94001.03;2969366;40;20080;-82
2021/07/19 04:03:47;;;;;;;10.38;9.00;;;;;;;20.72;72.98;94002.03;2962205;40;20053;-81
2021/07/19 04:05:57;;;;;;;11.98;9.27;;;;;;;20.90;72.37;93997.56;2962193;40;20064;-80
2021/07/19 04:07:58;;;;;;;12.57;8.25;;;;;;;21.08;71.94;94002.66;2962522;40;20415;-79
2021/07/19 04:10:00;;;;;;;11.05;8.68;;;;;;;21.22;71.45;94008.47;2973312;40;20119;-82
2021/07/19 04:12:02;;;;;;;12.73;9.07;;;;;;;20.82;72.66;93999.56;2974434;40;20055;-83
2021/07/19 04:14:07;;;;;;;11.95;8.98;;;;;;;20.79;72.64;93996.56;2976946;40;20177;-81
2021/07/19 04:16:13;;;;;;;12.68;8.82;;;;;;;20.73;73.18;93998.31;2954313;40;20072;-84
2021/07/19 04:18:15;;;;;;;12.55;8.63;;;;;;;20.99;72.45;94004.09;2961384;40;20060;-81
2021/07/19 04:20:17;;;;;;;15.73;9.82;;;;;;;21.20;71.35;93998.06;2961324;40;20053;-81
2021/07/19 04:22:19;;;;;;;11.65;9.02;;;;;;;21.38;70.67;94001.53;2967308;40;20101;-82
2021/07/19 04:24:21;;;;;;;10.65;8.50;;;;;;;21.57;70.32;93999.44;2962801;40;20145;-69
2021/07/19 04:26:22;;;;;;;10.30;8.27;;;;;;;21.78;69.29;94005.88;2951858;40;20045;-67
2021/07/19 04:28:24;;;;;;;11.90;9.13;;;;;;;21.95;68.70;93998.66;2959681;40;20623;-68
2021/07/19 04:30:33;;;;;;;11.82;8.88;;;;;;;22.05;68.11;93996.13;2964949;40;20041;-68
2021/07/19 04:32:44;;;;;;;12.75;8.90;;;;;;;22.14;67.51;93996.50;2955160;40;20068;-69
2021/07/19 04:34:46;;;;;;;13.32;9.20;;;;;;;22.28;67.30;93995.09;2962852;40;20138;-70
2021/07/19 04:36:48;;;;;;;11.98;8.98;;;;;;;22.38;66.70;93993.59;2967570;40;20407;-69
2021/07/19 04:38:50;;;;;;;11.43;9.70;;;;;;;22.41;66.59;93999.25;2964061;40;20048;-68
2021/07/19 04:40:56;;;;;;;13.68;9.75;;;;;;;22.53;66.25;94004.44;2967568;40;20118;-69
2021/07/19 04:42:58;;;;;;;10.43;9.20;;;;;;;22.68;65.66;93998.47;2968846;40;20056;-69
2021/07/19 04:44:59;;;;;;;12.95;9.13;;;;;;;22.75;64.82;94009.75;2956667;40;20065;-82
2021/07/19 04:47:02;;;;;;;15.27;9.93;;;;;;;22.87;64.77;94006.94;2967236;40;20071;-82
2021/07/19 04:49:05;;;;;;;14.45;10.18;;;;;;;22.92;64.25;94011.53;2970828;40;20059;-83
2021/07/19 04:51:07;;;;;;;14.90;10.50;;;;;;;22.88;64.69;94012.00;2958182;40;20056;-82
2021/07/19 04:53:10;;;;;;;18.60;10.63;;;;;;;22.81;64.60;94008.75;2969091;40;20060;-82
2021/07/19 04:55:17;;;;;;;12.15;10.48;;;;;;;22.70;64.53;94012.38;2962886;40;20083;-81
2021/07/19 04:57:20;;;;;;;14.45;11.40;;;;;;;22.46;65.62;94017.19;2968411;40;20146;-81
2021/07/19 04:59:23;;;;;;;15.45;10.00;;;;;;;22.35;65.84;94021.59;2966695;40;20076;-84
2021/07/19 05:01:27;;;;;;;16.42;10.55;;;;;;;22.44;65.98;94025.44;2968196;40;20141;-82
2021/07/19 05:03:33;;;;;;;19.25;10.88;;;;;;;22.54;65.73;94022.06;2968617;40;20142;-85
2021/07/19 05:05:36;;;;;;;13.63;9.73;;;;;;;22.70;64.98;94017.72;2962725;40;20110;-84
2021/07/19 05:07:39;;;;;;;16.35;10.77;;;;;;;22.89;64.64;94024.31;2967724;40;20384;-83
2021/07/19 05:09:41;;;;;;;;;;;;;;;23.06;64.33;94026.13;2972257;40;20060;-80
2021/07/19 05:11:44;;;;;;;16.75;10.32;;;;;;;22.96;64.10;94021.44;2959623;40;20289;-84
2021/07/19 05:13:46;;;;;;;12.00;10.30;;;;;;;22.65;65.22;94022.97;2968452;40;20528;-83
2021/07/19 05:15:48;;;;;;;14.63;10.23;;;;;;;22.74;64.83;94026.84;2969164;40;20665;-82
2021/07/19 05:17:50;;;;;;;16.30;10.02;;;;;;;22.74;64.87;94026.84;2972727;40;20065;-83
2021/07/19 05:19:51;;;;;;;16.40;9.93;;;;;;;22.87;64.47;94026.44;2967920;40;20055;-84
2021/07/19 05:21:53;;;;;;;13.73;9.60;;;;;;;23.02;64.37;94020.47;2969872;40;20136;-81
2021/07/19 05:23:55;;;;;;;11.60;9.68;;;;;;;23.21;63.50;94025.41;2967962;40;20138;-82
2021/07/19 05:25:57;;;;;;;14.30;9.02;;;;;;;23.39;62.82;94019.72;2964058;40;20512;-82
2021/07/19 05:27:58;;;;;;;10.15;8.82;;;;;;;23.60;62.16;94027.91;2958233;40;20060;-83
2021/07/19 05:30:00;;;;;;;14.30;9.27;;;;;;;23.73;61.31;94024.78;2966473;40;20072;-82
2021/07/19 05:32:03;;;;;;;16.35;10.63;;;;;;;23.73;60.98;94023.97;2965182;40;20096;-82
2021/07/19 05:34:05;;;;;;;13.07;10.68;;;;;;;23.58;61.17;94025.47;2969168;40;20185;-81
2021/07/19 05:36:11;;;;;;;11.52;10.02;;;;;;;23.58;61.82;94030.03;2966935;40;20044;-82
2021/07/19 05:38:14;;;;;;;11.57;9.32;;;;;;;23.28;60.89;94024.16;2970806;40;20076;-82
2021/07/19 05:40:17;;;;;;;9.95;8.95;;;;;;;23.09;61.92;94022.94;2970188;40;20055;-82
2021/07/19 05:42:18;;;;;;;15.95;8.20;;;;;;;23.25;61.96;94016.66;2970197;40;20060;-82
2021/07/19 05:44:20;;;;;;;10.52;9.25;;;;;;;23.17;61.49;94025.16;2968270;40;20060;-80
2021/07/19 05:46:22;;;;;;;13.07;10.02;;;;;;;23.18;61.50;94020.59;2970024;39;20132;-82
2021/07/19 05:48:24;;;;;;;12.95;10.07;;;;;;;23.06;61.71;94015.44;2966289;40;20040;-83
2021/07/19 05:50:27;;;;;;;11.13;10.00;;;;;;;23.09;61.84;94018.38;2972616;40;20143;-83
2021/07/19 05:52:29;;;;;;;;;;;;;;;23.04;61.87;94029.03;2963275;40;20345;-82
2021/07/19 05:54:31;;;;;;;12.90;9.80;;;;;;;22.95;62.44;94024.34;2968390;40;19936;-82
2021/07/19 05:56:32;;;;;;;14.45;9.40;;;;;;;23.21;61.48;94028.94;2958246;40;20450;-81
2021/07/19 05:58:34;;;;;;;10.27;9.13;;;;;;;23.14;60.93;94030.19;2959726;40;20084;-84
2021/07/19 06:00:36;;;;;;;14.45;9.35;;;;;;;23.18;61.08;94028.63;2971657;40;20054;-84
2021/07/19 06:02:38;;;;;;;11.15;8.90;;;;;;;23.36;60.34;94035.44;2964311;40;20056;-68
2021/07/19 06:04:40;;;;;;;10.40;8.57;;;;;;;23.54;60.03;94040.41;2970385;40;20116;-70
2021/07/19 06:06:43;;;;;;;18.90;8.82;;;;;;;23.28;59.99;94044.75;2962191;40;20375;-69
2021/07/19 06:08:44;;;;;;;13.90;8.90;;;;;;;23.50;60.03;94042.78;2967827;40;20060;-68
2021/07/19 06:10:46;;;;;;;13.57;8.60;;;;;;;23.78;58.96;94040.88;2968299;40;20064;-69
2021/07/19 06:12:48;;;;;;;10.75;7.88;;;;;;;24.00;58.22;94035.38;2961580;40;20076;-68
2021/07/19 06:14:50;;;;;;;14.50;7.82;;;;;;;24.17;58.30;94042.44;2965378;40;20056;-67
2021/07/19 06:16:52;;;;;;;11.48;7.20;;;;;;;24.38;57.43;94040.69;2966274;40;20059;-69
2021/07/19 06:18:54;;;;;;;11.95;7.70;;;;;;;24.55;56.44;94037.84;2960843;40;20061;-69
2021/07/19 06:20:56;;;;;;;11.40;7.40;;;;;;;24.71;56.12;94034.13;2963987;40;20180;-70
2021/07/19 06:23:02;;;;;;;35.08;23.42;;;;;;;24.90;55.72;94037.13;2966238;40;20064;-69
2021/07/19 06:25:05;;;;;;;23.67;15.65;;;;;;;25.09;55.41;94045.47;2960852;40;20464;-72
2021/07/19 06:27:07;;;;;;;13.48;8.55;;;;;;;25.23;54.89;94035.91;2966562;40;20455;-69
2021/07/19 06:29:09;;;;;;;10.95;7.70;;;;;;;25.31;54.60;94043.38;2966245;40;20088;-69
2021/07/19 06:31:11;;;;;;;11.63;7.63;;;;;;;25.31;54.24;94035.34;2960700;40;20406;-70
2021/07/19 06:33:13;;;;;;;12.23;7.93;;;;;;;25.11;54.20;94033.44;2957984;40;20083;-69
2021/07/19 06:35:15;;;;;;;11.75;7.75;;;;;;;25.22;54.65;94033.47;2967475;40;20197;-68
2021/07/19 06:37:17;;;;;;;8.50;7.50;;;;;;;25.34;54.16;94023.31;2962648;40;20115;-69
2021/07/19 06:39:19;;;;;;;14.68;8.23;;;;;;;25.21;54.52;94029.16;2966765;40;20060;-68
2021/07/19 06:41:21;;;;;;;9.90;7.93;;;;;;;25.21;54.66;94026.50;2966200;40;20098;-68
2021/07/19 06:43:22;;;;;;;17.55;7.88;;;;;;;25.30;54.85;94019.53;2966638;40;20040;-70
2021/07/19 06:45:24;;;;;;;13.43;7.55;;;;;;;25.47;54.33;94019.28;2958497;40;20072;-69
2021/07/19 06:47:29;;;;;;;13.75;7.63;;;;;;;25.53;53.79;94016.34;2966717;40;20053;-69
2021/07/19 06:49:31;;;;;;;11.98;7.93;;;;;;;25.40;54.27;94013.38;2965778;40;20348;-69
2021/07/19 06:51:32;;;;;;;14.15;9.60;;;;;;;25.38;54.60;94020.88;2966586;40;20056;-68
2021/07/19 06:53:34;;;;;;;12.07;7.88;;;;;;;25.41;54.31;94015.00;2966657;40;20150;-69
2021/07/19 06:55:36;;;;;;;15.10;7.80;;;;;;;25.33;54.21;94010.97;2959507;40;20063;-70
2021/07/19 06:57:38;;;;;;;12.50;8.30;;;;;;;25.17;55.16;94012.81;2961092;40;20600;-68
2021/07/19 06:59:40;;;;;;;9.32;7.55;;;;;;;25.39;54.90;94012.56;2964954;40;20092;-70
2021/07/19 07:01:42;;;;;;;12.07;7.43;;;;;;;25.51;54.43;94009.59;2962139;40;20053;-70
2021/07/19 07:03:44;;;;;;;9.38;7.10;;;;;;;25.73;54.34;94010.13;2962118;40;20423;-71
2021/07/19 07:06:00;;;;;;;15.43;7.45;;;;;;;25.91;53.26;94002.63;2957773;40;20053;-69
2021/07/19 07:08:03;;;;;;;8.90;7.28;;;;;;;26.05;52.77;94003.69;2960479;40;20056;-81
2021/07/19 07:10:06;;;;;;;12.40;8.05;;;;;;;26.20;52.25;94004.69;2960457;40;20064;-81
2021/07/19 07:12:07;;;;;;;10.20;7.30;;;;;;;26.28;52.04;93999.56;2965566;40;20438;-82
2021/07/19 07:14:10;;;;;;;10.77;6.82;;;;;;;26.25;51.95;94002.00;2953993;40;20124;-83
2021/07/19 07:16:12;;;;;;;9.80;7.20;;;;;;;26.21;52.09;93992.88;2966008;40;20146;-84
2021/07/19 07:18:14;;;;;;;14.27;7.95;;;;;;;26.26;51.59;93990.16;2958134;40;20388;-85
2021/07/19 07:20:16;;;;;;;10.77;7.13;;;;;;;26.22;51.92;93986.44;2957814;40;20055;-81
2021/07/19 07:22:18;;;;;;;12.25;7.93;;;;;;;26.42;51.46;93991.72;2959359;40;20122;-81
2021/07/19 07:24:20;;;;;;;9.32;7.28;;;;;;;26.27;51.25;93991.78;2962875;40;20499;-82
2021/07/19 07:26:23;;;;;;;10.80;7.10;;;;;;;26.38;51.57;93990.66;2960144;40;20093;-84
2021/07/19 07:28:25;;;;;;;8.73;6.40;;;;;;;26.38;51.22;93974.56;2967963;40;20339;-82
2021/07/19 07:30:27;;;;;;;9.10;7.07;;;;;;;26.35;51.82;93975.91;2967212;40;20096;-83
2021/07/19 07:32:29;;;;;;;10.73;6.68;;;;;;;26.45;51.81;93983.09;2959903;40;20047;-82
2021/07/19 07:34:31;;;;;;;10.88;7.10;;;;;;;26.46;51.71;93978.56;2967324;40;20084;-83
2021/07/19 07:36:34;;;;;;;10.10;6.63;;;;;;;26.40;52.09;93976.97;2967243;40;20060;-82
2021/07/19 07:38:36;;;;;;;11.45;7.72;;;;;;;26.34;51.99;93970.81;2962098;40;20198;-82
2021/07/19 07:40:38;;;;;;;11.25;6.85;;;;;;;26.43;51.91;93973.72;2959482;40;20321;-83
2021/07/19 07:42:40;;;;;;;14.48;7.82;;;;;;;26.33;51.83;93969.22;2963210;40;20052;-82
2021/07/19 07:44:42;;;;;;;11.48;7.30;;;;;;;26.19;52.48;93981.63;2969168;40;20409;-81
2021/07/19 07:46:44;;;;;;;9.55;7.18;;;;;;;26.46;52.24;93971.31;2969454;40;20080;-83
2021/07/19 07:48:46;;;;;;;9.40;7.80;;;;;;;26.71;51.53;93966.91;2971609;40;20044;-83
2021/07/19 07:50:48;;;;;;;8.77;7.22;;;;;;;26.82;51.97;93973.81;2972162;40;20313;-82
2021/07/19 07:52:50;;;;;;;8.75;6.95;;;;;;;27.07;50.97;93975.53;2971040;40;20048;-84
2021/07/19 07:54:51;;;;;;;7.15;6.38;;;;;;;27.21;50.12;93980.28;2968713;40;20422;-81
2021/07/19 07:56:53;;;;;;;8.73;7.18;;;;;;;27.34;50.13;93980.47;2968850;40;20056;-83
2021/07/19 07:59:02;;;;;;;12.35;7.15;;;;;;;27.15;50.21;93972.25;2961705;40;20145;-85
2021/07/19 08:01:04;;;;;;;17.40;7.88;;;;;;;27.41;50.34;93979.34;2966947;40;20135;-83
2021/07/19 08:03:06;;;;;;;10.90;7.13;;;;;;;27.36;49.82;93978.31;2962379;40;20335;-83
2021/07/19 08:05:09;;;;;;;17.52;7.43;;;;;;;27.46;49.02;93982.00;2962471;40;20081;-69
2021/07/19 08:07:11;;;;;;;8.82;6.85;;;;;;;27.49;49.14;93986.78;2964517;40;20643;-69
2021/07/19 08:09:13;;;;;;;12.18;6.38;;;;;;;27.52;48.98;93987.03;2966079;40;20097;-69
2021/07/19 08:11:14;;;;;;;8.25;6.40;;;;;;;27.57;48.02;93983.50;2964595;40;20056;-70
2021/07/19 08:13:16;;;;;;;12.82;6.95;;;;;;;27.39;48.84;93982.31;2959044;40;20061;-71
2021/07/19 08:15:18;;;;;;;8.05;6.07;;;;;;;27.45;48.60;93975.00;2964181;40;20320;-69
2021/07/19 08:17:20;;;;;;;10.30;6.70;;;;;;;27.37;49.45;93979.91;2967099;40;20367;-69
2021/07/19 08:19:24;;;;;;;8.02;6.18;;;;;;;27.65;48.92;93969.44;2967065;40;20265;-70
2021/07/19 08:21:25;;;;;;;10.65;6.03;;;;;;;27.48;48.17;93974.44;2961785;40;20425;-69
2021/07/19 08:23:27;;;;;;;9.85;6.35;;;;;;;27.20;49.22;93974.09;2961016;40;20411;-69
2021/07/19 08:25:29;;;;;;;7.22;5.97;;;;;;;27.06;49.02;93967.75;2950995;40;20134;-69
2021/07/19 08:27:31;;;;;;;17.02;6.90;;;;;;;27.08;49.28;93968.25;2960840;40;20073;-68
2021/07/19 08:29:32;;;;;;;11.15;6.05;;;;;;;27.14;49.46;93976.00;2966528;40;20037;-69
2021/07/19 08:31:35;;;;;;;35.08;8.85;;;;;;;27.14;49.03;93969.84;2962092;40;20052;-68
2021/07/19 08:33:37;;;;;;;13.15;6.25;;;;;;;27.23;48.66;93973.56;2961358;40;20129;-69
2021/07/19 08:35:39;;;;;;;27.75;6.93;;;;;;;27.23;48.18;93968.19;2954055;40;20077;-68
2021/07/19 08:37:44;;;;;;;10.68;5.97;;;;;;;27.42;47.69;93970.19;2967546;40;20052;-68
2021/07/19 08:39:46;;;;;;;8.00;5.72;;;;;;;27.65;47.44;93969.44;2967316;40;20115;-69
2021/07/19 08:41:47;;;;;;;13.45;6.28;;;;;;;27.79;47.21;93961.50;2968372;40;20145;-68
2021/07/19 08:43:49;;;;;;;10.32;5.32;;;;;;;28.00;46.69;93967.50;2969598;40;20084;-69
2021/07/19 08:45:51;;;;;;;10.80;5.95;;;;;;;28.16;46.55;93966.25;2962451;40;20049;-70
2021/07/19 08:47:53;;;;;;;8.00;5.15;;;;;;;28.30;45.84;93965.56;2964267;40;20044;-68
2021/07/19 08:49:54;;;;;;;9.38;5.47;;;;;;;28.35;45.42;93962.78;2966848;40;20068;-68
2021/07/19 08:51:57;;;;;;;13.13;6.20;;;;;;;28.02;45.37;93962.63;2967889;40;20118;-67
2021/07/19 08:54:00;;;;;;;8.40;5.40;;;;;;;28.00;45.80;93964.81;2959401;40;20076;-69
2021/07/19 08:56:06;;;;;;;8.63;5.40;;;;;;;28.24;45.38;93970.19;2966331;40;20040;-69
2021/07/19 08:58:12;;;;;;;7.82;5.50;;;;;;;28.50;45.10;93962.66;2963474;40;20044;-69
2021/07/19 09:00:15;;;;;;;9.20;5.80;;;;;;;28.68;45.06;93960.25;2960698;40;20061;-70
2021/07/19 09:02:17;;;;;;;9.88;5.50;;;;;;;28.75;43.98;93950.72;2967113;40;20089;-69
2021/07/19 09:04:19;;;;;;;6.30;5.15;;;;;;;28.88;43.88;93956.47;2967175;40;20513;-84
2021/07/19 09:06:21;;;;;;;10.45;6.28;;;;;;;29.00;43.70;93951.44;2965416;40;20420;-82
2021/07/19 09:08:22;;;;;;;8.00;5.60;;;;;;;28.87;43.88;93955.69;2961489;40;20053;-82
2021/07/19 09:10:26;;;;;;;14.30;5.68;;;;;;;28.89;43.45;93947.28;2970714;40;20131;-80
2021/07/19 09:12:40;;;;;;;10.00;5.30;;;;;;;29.03;43.69;93944.66;2961735;40;20096;-81
2021/07/19 09:14:46;;;;;;;9.18;5.50;;;;;;;29.05;43.72;93945.97;2954836;40;20101;-80
2021/07/19 09:16:49;;;;;;;8.23;5.72;;;;;;;29.19;43.60;93946.06;2962710;40;20204;-84
2021/07/19 09:19:04;;;;;;;6.57;5.35;;;;;;;28.74;44.33;93951.00;2966082;40;20100;-84
2021/07/19 09:21:06;;;;;;;8.85;5.93;;;;;;;28.42;44.82;93944.41;2967302;40;20049;-83
2021/07/19 09:23:11;;;;;;;7.32;5.60;;;;;;;28.63;44.84;93942.28;2968820;40;20072;-82
2021/07/19 09:25:14;;;;;;;7.85;5.32;;;;;;;28.90;44.28;93949.69;2968309;40;20060;-85
2021/07/19 09:27:21;;;;;;;10.50;5.57;;;;;;;29.12;43.79;93942.91;2955808;40;20051;-84
2021/07/19 09:29:24;;;;;;;8.20;5.60;;;;;;;29.01;43.87;93944.94;2956943;40;20092;-82
2021/07/19 09:31:37;;;;;;;8.23;5.85;;;;;;;28.86;44.55;93945.97;2970272;40;20052;-82
2021/07/19 09:33:39;;;;;;;9.88;5.93;;;;;;;29.22;44.08;93939.28;2955564;40;20074;-82